Terminal Aerodrome Forecast
Issued by NWS

Home | Current Version | Previous Version | Graphics & Text | Print | Product List | Glossary On
Versions: 1 2 3 4 5 6 7 8 9 10 11 12 13
000
FTUS45 KGGW 182134 AAA
TAFOLF
TAF AMD
KOLF 182134Z 1822/1918 05014G22KT P6SM -SHRA BKN060
      TEMPO 1822/1823 5SM BR
     FM182300 06011KT P6SM OVC035
     FM190600 08007KT P6SM BKN120=

USA.gov is the U.S. government's official web portal to all federal, state and local government web resources and services.